createdAt,value
2018-05-27T00:00:37.161Z,15.40
2018-05-27T00:03:04.852Z,15.40
2018-05-27T00:05:32.358Z,15.40
2018-05-27T00:07:59.953Z,15.40
2018-05-27T00:10:27.616Z,15.30
2018-05-27T00:12:55.158Z,15.30
2018-05-27T00:15:23.136Z,15.20
2018-05-27T00:17:50.674Z,15.20
2018-05-27T00:20:18.666Z,15.20
2018-05-27T00:22:46.197Z,15.20
2018-05-27T00:25:14.093Z,15.10
2018-05-27T00:27:41.633Z,15.10
2018-05-27T00:30:09.149Z,15.10
2018-05-27T00:32:36.682Z,15.10
2018-05-27T00:35:04.189Z,15.10
2018-05-27T00:37:31.870Z,15.10
2018-05-27T00:39:59.377Z,15.00
2018-05-27T00:42:26.902Z,14.90
2018-05-27T00:44:54.426Z,14.90
2018-05-27T00:47:22.090Z,14.90
2018-05-27T00:49:49.640Z,15.00
2018-05-27T00:52:17.552Z,15.00
2018-05-27T00:54:45.054Z,15.00
2018-05-27T00:57:12.582Z,15.00
2018-05-27T00:59:40.093Z,15.00
2018-05-27T01:02:07.845Z,15.00
2018-05-27T01:04:36.249Z,14.90
2018-05-27T01:07:03.778Z,14.90
2018-05-27T01:09:31.290Z,14.90
2018-05-27T01:11:59.209Z,14.90
2018-05-27T01:14:26.734Z,14.90
2018-05-27T01:16:54.415Z,14.90
2018-05-27T01:19:22.068Z,14.90
2018-05-27T01:21:49.721Z,14.90
2018-05-27T01:24:17.598Z,14.80
2018-05-27T01:26:45.097Z,14.80
2018-05-27T01:29:13.342Z,14.80
2018-05-27T01:31:40.980Z,14.80
2018-05-27T01:34:08.627Z,14.70
2018-05-27T01:36:36.295Z,14.70
2018-05-27T01:39:03.829Z,14.70
2018-05-27T01:41:31.414Z,14.60
2018-05-27T01:43:59.069Z,14.60
2018-05-27T01:46:26.578Z,14.60
2018-05-27T01:48:54.169Z,14.50
2018-05-27T01:51:21.678Z,14.50
2018-05-27T01:53:49.285Z,14.50
2018-05-27T01:56:16.785Z,14.50
2018-05-27T01:58:44.321Z,14.50
2018-05-27T02:01:11.859Z,14.40
2018-05-27T02:03:39.517Z,14.40
2018-05-27T02:06:07.036Z,14.40
2018-05-27T02:08:35.030Z,14.30
2018-05-27T02:11:02.542Z,14.30
2018-05-27T02:13:30.146Z,14.20
2018-05-27T02:15:57.815Z,14.20
2018-05-27T02:18:25.341Z,14.20
2018-05-27T02:20:53.338Z,14.20
2018-05-27T02:23:22.243Z,14.20
2018-05-27T02:25:49.749Z,14.20
2018-05-27T02:28:17.690Z,14.10
2018-05-27T02:30:45.313Z,14.10
2018-05-27T02:33:12.853Z,14.10
2018-05-27T02:35:40.361Z,14.10
2018-05-27T02:38:07.901Z,14.10
2018-05-27T02:40:35.412Z,14.00
2018-05-27T02:43:02.951Z,13.90
2018-05-27T02:45:30.945Z,13.90
2018-05-27T02:47:58.488Z,13.90
2018-05-27T02:50:26.013Z,13.90
2018-05-27T02:52:53.726Z,13.90
2018-05-27T02:55:21.254Z,13.90
2018-05-27T02:57:48.766Z,13.80
2018-05-27T03:00:16.480Z,13.80
2018-05-27T03:02:44.146Z,13.80
2018-05-27T03:05:11.698Z,13.80
2018-05-27T03:07:39.227Z,13.70
2018-05-27T03:10:06.762Z,13.70
2018-05-27T03:12:34.274Z,13.60
2018-05-27T03:15:01.809Z,13.60
2018-05-27T03:17:29.322Z,13.60
2018-05-27T03:19:56.932Z,13.60
2018-05-27T03:22:24.441Z,13.60
2018-05-27T03:24:51.977Z,13.60
2018-05-27T03:27:19.477Z,13.60
2018-05-27T03:29:48.870Z,13.60
2018-05-27T03:32:16.783Z,13.40
2018-05-27T03:34:44.332Z,13.40
2018-05-27T03:37:12.807Z,13.40
2018-05-27T03:39:40.346Z,13.40
2018-05-27T03:42:07.913Z,13.40
2018-05-27T03:44:35.569Z,13.40
2018-05-27T03:47:03.071Z,13.50
2018-05-27T03:49:31.037Z,13.40
2018-05-27T03:51:58.554Z,13.40
2018-05-27T03:54:26.203Z,13.40
2018-05-27T03:56:54.552Z,13.30
2018-05-27T03:59:22.476Z,13.00
2018-05-27T04:01:49.989Z,12.90
2018-05-27T04:04:29.913Z,12.90
2018-05-27T04:07:09.149Z,12.90
2018-05-27T04:09:37.142Z,12.90
2018-05-27T04:12:04.650Z,12.90
2018-05-27T04:14:32.185Z,12.90
2018-05-27T04:16:59.685Z,13.00
2018-05-27T04:19:27.213Z,13.00
2018-05-27T04:21:54.826Z,13.20
2018-05-27T04:24:22.425Z,13.20
2018-05-27T04:26:49.925Z,13.20
2018-05-27T04:29:17.603Z,13.20
2018-05-27T04:31:45.126Z,13.20
2018-05-27T04:34:14.066Z,13.30
2018-05-27T04:36:41.604Z,13.30
2018-05-27T04:39:09.118Z,13.40
2018-05-27T04:41:37.664Z,13.60
2018-05-27T04:44:05.168Z,13.70
2018-05-27T04:46:32.698Z,13.80
2018-05-27T04:49:00.292Z,13.90
2018-05-27T04:51:27.957Z,14.10
2018-05-27T04:53:55.495Z,14.20
2018-05-27T04:56:25.198Z,14.30
2018-05-27T04:58:53.694Z,14.40
2018-05-27T05:01:21.233Z,14.50
2018-05-27T05:03:48.915Z,14.50
2018-05-27T05:06:16.565Z,14.70
2018-05-27T05:08:44.107Z,14.70
2018-05-27T05:11:12.342Z,14.90
2018-05-27T05:13:39.871Z,15.00
2018-05-27T05:16:07.397Z,15.10
2018-05-27T05:18:34.889Z,15.20
2018-05-27T05:21:02.521Z,15.20
2018-05-27T05:23:30.184Z,15.30
2018-05-27T05:25:57.848Z,15.40
2018-05-27T05:28:25.344Z,15.50
2018-05-27T05:30:52.961Z,15.60
2018-05-27T05:33:20.462Z,15.80
2018-05-27T05:35:47.997Z,16.00
2018-05-27T05:38:15.502Z,16.20
2018-05-27T05:40:43.031Z,16.40
2018-05-27T05:43:10.534Z,16.70
2018-05-27T05:45:38.083Z,17.00
2018-05-27T05:48:05.581Z,17.30
2018-05-27T05:50:33.117Z,17.60
2018-05-27T05:53:00.622Z,17.90
2018-05-27T05:55:28.157Z,18.50
2018-05-27T05:57:55.662Z,18.60
2018-05-27T06:00:23.170Z,18.70
2018-05-27T06:02:50.703Z,19.00
2018-05-27T06:05:20.805Z,19.30
2018-05-27T06:07:48.342Z,19.50
2018-05-27T06:10:15.842Z,19.70
2018-05-27T06:12:43.565Z,20.10
2018-05-27T06:15:11.069Z,20.40
2018-05-27T06:17:38.618Z,21.40
2018-05-27T06:20:06.131Z,22.20
2018-05-27T06:22:33.665Z,23.20
2018-05-27T06:25:01.274Z,24.00
2018-05-27T06:27:29.432Z,24.10
2018-05-27T06:29:56.938Z,24.30
2018-05-27T06:32:24.479Z,24.10
2018-05-27T06:34:51.982Z,25.00
2018-05-27T06:37:19.545Z,25.80
2018-05-27T06:39:47.041Z,26.80
2018-05-27T06:42:14.570Z,27.30
2018-05-27T06:44:42.097Z,27.70
2018-05-27T06:47:09.945Z,27.90
2018-05-27T06:49:40.518Z,28.00
2018-05-27T06:52:08.121Z,28.10
2018-05-27T06:54:35.638Z,28.40
2018-05-27T06:57:03.179Z,28.80
2018-05-27T06:59:30.682Z,28.80
2018-05-27T07:01:58.761Z,29.00
2018-05-27T07:04:26.278Z,29.60
2018-05-27T07:06:54.913Z,30.60
2018-05-27T07:09:22.462Z,31.50
2018-05-27T07:11:50.036Z,32.60
2018-05-27T07:14:17.576Z,32.70
2018-05-27T07:16:45.106Z,32.60
2018-05-27T07:19:12.808Z,32.40
2018-05-27T07:21:40.309Z,33.50
2018-05-27T07:24:07.858Z,33.80
2018-05-27T07:26:35.386Z,33.50
2018-05-27T07:29:02.909Z,33.10
2018-05-27T07:31:30.494Z,33.40
2018-05-27T07:33:58.029Z,34.10
2018-05-27T07:36:25.556Z,34.50
2018-05-27T07:38:53.098Z,35.10
2018-05-27T07:41:20.741Z,35.30
2018-05-27T07:43:48.275Z,35.20
2018-05-27T07:46:15.826Z,34.60
2018-05-27T07:48:43.689Z,33.70
2018-05-27T07:51:11.194Z,32.50
2018-05-27T07:53:38.813Z,31.30
2018-05-27T07:56:06.318Z,31.20
2018-05-27T07:58:34.264Z,32.00
2018-05-27T08:01:01.773Z,32.00
2018-05-27T08:03:29.441Z,32.00
2018-05-27T08:05:56.957Z,31.90
2018-05-27T08:08:26.334Z,32.00
2018-05-27T08:10:54.057Z,32.00
2018-05-27T08:13:21.722Z,31.70
2018-05-27T08:15:49.226Z,31.40
2018-05-27T08:18:17.153Z,29.90
2018-05-27T08:20:44.670Z,29.90
2018-05-27T08:23:12.349Z,30.00
2018-05-27T08:25:39.859Z,30.20
2018-05-27T08:28:07.793Z,29.90
2018-05-27T08:30:35.293Z,29.80
2018-05-27T08:33:02.986Z,29.40
2018-05-27T08:35:30.487Z,29.40
2018-05-27T08:37:57.999Z,28.80
2018-05-27T08:40:25.534Z,28.20
2018-05-27T08:42:53.038Z,27.70
2018-05-27T08:45:20.662Z,27.20
2018-05-27T08:47:49.496Z,27.20
2018-05-27T08:50:17.024Z,27.50
2018-05-27T08:52:44.529Z,28.10
2018-05-27T08:55:12.469Z,29.00
2018-05-27T08:57:39.982Z,29.00
2018-05-27T09:00:07.518Z,29.80
2018-05-27T09:02:35.032Z,30.40
2018-05-27T09:05:03.823Z,31.20
2018-05-27T09:07:31.425Z,31.20
2018-05-27T09:09:58.955Z,31.60
2018-05-27T09:12:26.858Z,32.30
2018-05-27T09:14:54.385Z,32.40
2018-05-27T09:17:22.074Z,32.80
2018-05-27T09:19:49.727Z,33.80
2018-05-27T09:22:17.237Z,35.20
2018-05-27T09:24:44.795Z,36.80
2018-05-27T09:27:12.506Z,37.40
2018-05-27T09:29:40.149Z,37.30
2018-05-27T09:32:07.825Z,36.40
2018-05-27T09:34:35.371Z,35.50
2018-05-27T09:37:02.932Z,35.50
2018-05-27T09:39:30.584Z,35.00
2018-05-27T09:41:58.246Z,34.20
2018-05-27T09:44:25.912Z,34.10
2018-05-27T09:46:53.568Z,34.20
2018-05-27T09:49:21.228Z,34.30
2018-05-27T09:51:48.880Z,34.60
2018-05-27T09:54:16.528Z,34.80
2018-05-27T09:56:44.197Z,34.60
2018-05-27T09:59:11.725Z,34.20
2018-05-27T10:01:39.723Z,34.00
2018-05-27T10:04:07.382Z,34.00
2018-05-27T10:06:34.897Z,34.40
2018-05-27T10:09:02.838Z,34.90
2018-05-27T10:11:31.231Z,34.90
2018-05-27T10:13:59.185Z,36.80
2018-05-27T10:16:26.904Z,36.80
2018-05-27T10:18:55.854Z,37.10
2018-05-27T10:21:23.782Z,36.30
2018-05-27T10:23:51.293Z,35.30
2018-05-27T10:26:18.829Z,34.90
2018-05-27T10:28:46.825Z,34.40
2018-05-27T10:31:14.363Z,34.40
2018-05-27T10:33:42.290Z,33.90
2018-05-27T10:36:09.825Z,33.60
2018-05-27T10:38:37.337Z,33.30
2018-05-27T10:41:05.332Z,32.70
2018-05-27T10:43:32.990Z,32.60
2018-05-27T10:46:00.654Z,32.70
2018-05-27T10:48:28.172Z,32.60
2018-05-27T10:50:56.106Z,32.10
2018-05-27T10:53:24.660Z,31.80
2018-05-27T10:55:52.193Z,30.90
2018-05-27T10:58:20.534Z,30.20
2018-05-27T11:00:48.093Z,30.00
2018-05-27T11:03:15.597Z,29.60
2018-05-27T11:05:43.202Z,29.50
2018-05-27T11:08:11.831Z,29.70
2018-05-27T11:10:39.363Z,30.00
2018-05-27T11:13:07.284Z,30.00
2018-05-27T11:15:34.813Z,29.60
2018-05-27T11:18:02.470Z,29.50
2018-05-27T11:20:30.130Z,29.30
2018-05-27T11:22:57.635Z,28.90
2018-05-27T11:25:25.229Z,29.00
2018-05-27T11:27:52.745Z,29.30
2018-05-27T11:30:20.354Z,29.30
2018-05-27T11:32:47.863Z,29.20
2018-05-27T11:35:15.397Z,29.10
2018-05-27T11:37:42.894Z,28.70
2018-05-27T11:40:10.582Z,27.80
2018-05-27T11:42:38.086Z,27.60
2018-05-27T11:45:05.618Z,27.70
2018-05-27T11:47:33.123Z,27.70
2018-05-27T11:50:00.654Z,27.60
2018-05-27T11:52:28.550Z,27.40
2018-05-27T11:54:57.014Z,27.40
2018-05-27T11:57:24.919Z,27.10
2018-05-27T11:59:52.433Z,27.00
2018-05-27T12:02:20.138Z,26.90
2018-05-27T12:04:47.665Z,26.70
2018-05-27T12:07:15.193Z,26.70
2018-05-27T12:09:42.914Z,26.80
2018-05-27T12:12:10.259Z,27.00
2018-05-27T12:14:37.762Z,27.00
2018-05-27T12:17:05.310Z,27.20
2018-05-27T12:19:33.216Z,27.30
2018-05-27T12:22:00.749Z,27.30
2018-05-27T12:24:28.643Z,27.10
2018-05-27T12:26:56.201Z,26.80
2018-05-27T12:29:23.745Z,26.80
2018-05-27T12:31:51.375Z,26.80
2018-05-27T12:34:18.887Z,26.70
2018-05-27T12:36:46.424Z,26.70
2018-05-27T12:39:13.932Z,26.70
2018-05-27T12:41:41.639Z,26.60
2018-05-27T12:44:09.157Z,26.70
2018-05-27T12:46:36.850Z,26.40
2018-05-27T12:49:05.008Z,26.40
2018-05-27T12:51:32.550Z,26.30
2018-05-27T12:54:00.226Z,26.40
2018-05-27T12:56:27.913Z,26.60
2018-05-27T12:58:55.554Z,26.80
2018-05-27T13:01:23.626Z,26.90
2018-05-27T13:03:51.293Z,27.00
2018-05-27T13:06:18.934Z,27.00
2018-05-27T13:08:46.442Z,26.90
2018-05-27T13:11:13.960Z,26.70
2018-05-27T13:13:41.515Z,26.50
2018-05-27T13:16:09.175Z,26.50
2018-05-27T13:18:36.676Z,26.50
2018-05-27T13:21:04.207Z,26.40
2018-05-27T13:23:34.313Z,26.40
2018-05-27T13:26:01.844Z,26.40
2018-05-27T13:28:29.342Z,26.50
2018-05-27T13:30:56.870Z,26.40
2018-05-27T13:33:24.369Z,26.50
2018-05-27T13:35:51.912Z,26.60
2018-05-27T13:38:19.521Z,26.90
2018-05-27T13:40:47.233Z,27.00
2018-05-27T13:43:14.725Z,27.10
2018-05-27T13:45:42.233Z,27.20
2018-05-27T13:48:09.762Z,27.20
2018-05-27T13:50:37.419Z,27.20
2018-05-27T13:53:04.957Z,27.20
2018-05-27T13:55:32.467Z,27.30
2018-05-27T13:57:59.999Z,27.20
2018-05-27T14:00:28.354Z,27.40
2018-05-27T14:02:55.878Z,27.50
2018-05-27T14:05:23.390Z,27.50
2018-05-27T14:07:51.070Z,27.40
2018-05-27T14:10:18.674Z,27.50
2018-05-27T14:12:46.335Z,27.50
2018-05-27T14:15:13.997Z,27.40
2018-05-27T14:17:45.557Z,27.30
2018-05-27T14:20:14.013Z,27.20
2018-05-27T14:22:41.541Z,27.00
2018-05-27T14:25:09.034Z,26.60
2018-05-27T14:27:36.573Z,26.40
2018-05-27T14:30:04.074Z,26.30
2018-05-27T14:32:31.603Z,26.40
2018-05-27T14:34:59.107Z,26.50
2018-05-27T14:37:26.662Z,26.80
2018-05-27T14:39:54.171Z,26.80
2018-05-27T14:42:21.706Z,26.70
2018-05-27T14:44:49.256Z,26.70
2018-05-27T14:47:16.779Z,26.60
2018-05-27T14:49:44.294Z,26.50
2018-05-27T14:52:11.843Z,26.60
2018-05-27T14:54:39.358Z,26.70
2018-05-27T14:57:06.890Z,26.80
2018-05-27T14:59:34.398Z,26.80
2018-05-27T15:02:01.983Z,26.80
2018-05-27T15:04:29.492Z,26.70
2018-05-27T15:06:57.501Z,26.60
2018-05-27T15:09:24.998Z,26.70
2018-05-27T15:11:52.505Z,26.60
2018-05-27T15:14:20.060Z,26.60
2018-05-27T15:16:47.721Z,26.70
2018-05-27T15:19:15.380Z,26.80
2018-05-27T15:21:43.416Z,26.80
2018-05-27T15:24:11.137Z,26.80
2018-05-27T15:26:39.424Z,26.80
2018-05-27T15:29:06.954Z,26.50
2018-05-27T15:31:34.470Z,26.50
2018-05-27T15:34:02.534Z,26.40
2018-05-27T15:36:30.210Z,26.40
2018-05-27T15:38:57.761Z,26.30
2018-05-27T15:41:25.325Z,26.30
2018-05-27T15:43:52.856Z,26.30
2018-05-27T15:46:21.126Z,26.20
2018-05-27T15:48:49.069Z,26.10
2018-05-27T15:51:16.565Z,26.10
2018-05-27T15:53:44.159Z,26.10
2018-05-27T15:56:11.645Z,26.10
2018-05-27T15:58:39.175Z,26.10
2018-05-27T16:01:06.691Z,26.10
2018-05-27T16:03:34.536Z,25.90
2018-05-27T16:06:02.437Z,25.80
2018-05-27T16:08:30.031Z,25.60
2018-05-27T16:10:57.548Z,25.60
2018-05-27T16:13:25.077Z,25.50
2018-05-27T16:15:52.584Z,25.40
2018-05-27T16:18:20.222Z,25.30
2018-05-27T16:20:47.752Z,25.30
2018-05-27T16:23:15.321Z,25.30
2018-05-27T16:25:42.972Z,25.30
2018-05-27T16:28:10.505Z,25.40
2018-05-27T16:30:38.413Z,25.40
2018-05-27T16:33:05.969Z,25.40
2018-05-27T16:35:33.465Z,25.40
2018-05-27T16:38:00.989Z,25.40
2018-05-27T16:40:28.491Z,25.30
2018-05-27T16:42:56.029Z,25.30
2018-05-27T16:45:23.565Z,25.30
2018-05-27T16:47:51.090Z,25.50
2018-05-27T16:50:19.471Z,25.70
2018-05-27T16:52:46.981Z,25.70
2018-05-27T16:55:14.530Z,25.50
2018-05-27T16:57:42.037Z,25.50
2018-05-27T17:00:09.655Z,25.50
2018-05-27T17:02:37.260Z,25.40
2018-05-27T17:05:04.904Z,25.40
2018-05-27T17:07:33.010Z,25.40
2018-05-27T17:10:00.534Z,25.40
2018-05-27T17:12:28.672Z,25.20
2018-05-27T17:14:56.152Z,25.10
2018-05-27T17:17:23.825Z,25.00
2018-05-27T17:19:51.381Z,24.80
2018-05-27T17:22:18.880Z,24.80
2018-05-27T17:24:46.409Z,24.70
2018-05-27T17:27:13.915Z,24.60
2018-05-27T17:29:41.837Z,24.50
2018-05-27T17:32:09.791Z,24.50
2018-05-27T17:34:38.255Z,24.40
2018-05-27T17:37:05.914Z,24.40
2018-05-27T17:39:33.456Z,24.30
2018-05-27T17:42:00.969Z,24.20
2018-05-27T17:44:28.523Z,24.20
2018-05-27T17:46:56.033Z,24.20
2018-05-27T17:49:23.693Z,24.10
2018-05-27T17:51:51.201Z,24.00
2018-05-27T17:54:18.804Z,23.90
2018-05-27T17:56:46.372Z,23.70
2018-05-27T17:59:13.948Z,23.70
2018-05-27T18:01:41.449Z,23.40
2018-05-27T18:04:09.201Z,23.30
2018-05-27T18:06:37.106Z,23.20
2018-05-27T18:09:05.352Z,23.10
2018-05-27T18:11:32.872Z,23.10
2018-05-27T18:14:00.409Z,22.90
2018-05-27T18:16:27.933Z,22.80
2018-05-27T18:18:55.445Z,22.80
2018-05-27T18:21:22.983Z,22.70
2018-05-27T18:23:50.518Z,22.60
2018-05-27T18:26:18.094Z,22.50
2018-05-27T18:28:45.620Z,22.50
2018-05-27T18:31:13.197Z,22.40
2018-05-27T18:33:40.711Z,22.40
2018-05-27T18:36:09.118Z,22.40
2018-05-27T18:38:36.665Z,22.30
2018-05-27T18:41:04.205Z,22.30
2018-05-27T18:43:33.116Z,22.20
2018-05-27T18:46:00.657Z,22.20
2018-05-27T18:48:28.157Z,22.10
2018-05-27T18:50:55.877Z,22.00
2018-05-27T18:53:24.278Z,21.90
2018-05-27T18:55:51.825Z,21.80
2018-05-27T18:58:19.321Z,21.60
2018-05-27T19:00:46.866Z,21.50
2018-05-27T19:03:14.370Z,21.40
2018-05-27T19:05:42.037Z,21.40
2018-05-27T19:08:09.555Z,21.30
2018-05-27T19:10:37.477Z,21.30
2018-05-27T19:13:05.035Z,21.30
2018-05-27T19:15:32.711Z,21.30
2018-05-27T19:18:00.232Z,21.30
2018-05-27T19:20:27.887Z,21.20
2018-05-27T19:22:55.389Z,21.00
2018-05-27T19:25:22.920Z,20.90
2018-05-27T19:27:51.129Z,20.80
2018-05-27T19:30:19.292Z,20.70
2018-05-27T19:32:46.801Z,20.70
2018-05-27T19:35:14.344Z,20.50
2018-05-27T19:37:41.849Z,20.40
2018-05-27T19:40:09.396Z,20.30
2018-05-27T19:42:36.898Z,20.30
2018-05-27T19:45:04.427Z,20.30
2018-05-27T19:47:33.488Z,20.20
2018-05-27T19:50:01.787Z,20.20
2018-05-27T19:52:29.285Z,20.20
2018-05-27T19:54:56.851Z,20.10
2018-05-27T19:57:24.500Z,20.00
2018-05-27T19:59:52.018Z,20.00
2018-05-27T20:02:19.561Z,19.90
2018-05-27T20:04:47.074Z,19.80
2018-05-27T20:07:15.129Z,19.70
2018-05-27T20:09:42.812Z,19.60
2018-05-27T20:12:10.338Z,19.60
2018-05-27T20:14:37.841Z,19.50
2018-05-27T20:17:05.389Z,19.50
2018-05-27T20:19:33.035Z,19.50
2018-05-27T20:22:00.573Z,19.40
2018-05-27T20:24:28.080Z,19.40
2018-05-27T20:26:55.669Z,19.30
2018-05-27T20:29:23.578Z,19.20
2018-05-27T20:31:51.109Z,19.20
2018-05-27T20:34:18.766Z,19.20
2018-05-27T20:36:46.302Z,19.10
2018-05-27T20:39:14.237Z,19.10
2018-05-27T20:41:41.744Z,19.10
2018-05-27T20:44:10.633Z,19.00
2018-05-27T20:46:38.170Z,19.00
2018-05-27T20:49:06.070Z,18.90
2018-05-27T20:51:33.617Z,18.80
2018-05-27T20:54:01.121Z,18.80
2018-05-27T20:56:28.798Z,18.80
2018-05-27T20:58:56.377Z,18.80
2018-05-27T21:01:23.900Z,18.70
2018-05-27T21:03:51.403Z,18.60
2018-05-27T21:06:18.928Z,18.60
2018-05-27T21:08:47.291Z,18.60
2018-05-27T21:11:15.278Z,18.50
2018-05-27T21:13:42.961Z,18.50
2018-05-27T21:16:10.552Z,18.40
2018-05-27T21:18:39.285Z,18.30
2018-05-27T21:21:06.824Z,18.30
2018-05-27T21:23:34.808Z,18.20
2018-05-27T21:26:02.337Z,18.20
2018-05-27T21:28:30.232Z,18.10
2018-05-27T21:30:57.817Z,18.10
2018-05-27T21:33:25.356Z,18.10
2018-05-27T21:35:52.880Z,18.00
2018-05-27T21:38:20.568Z,18.00
2018-05-27T21:40:48.086Z,18.00
2018-05-27T21:43:16.076Z,18.00
2018-05-27T21:45:43.593Z,18.00
2018-05-27T21:48:11.117Z,18.00
2018-05-27T21:50:38.622Z,18.00
2018-05-27T21:53:06.164Z,18.00
2018-05-27T21:55:34.086Z,17.90
2018-05-27T21:58:01.835Z,17.80
2018-05-27T22:00:29.333Z,17.80
2018-05-27T22:02:56.866Z,17.70
2018-05-27T22:05:25.162Z,17.60
2018-05-27T22:07:52.701Z,17.60
2018-05-27T22:10:20.214Z,17.50
2018-05-27T22:12:51.489Z,17.40
2018-05-27T22:15:18.989Z,17.40
2018-05-27T22:17:46.922Z,17.50
2018-05-27T22:20:14.430Z,17.50
2018-05-27T22:22:43.108Z,17.40
2018-05-27T22:25:11.008Z,17.30
2018-05-27T22:27:38.658Z,17.30
2018-05-27T22:30:06.337Z,17.20
2018-05-27T22:32:33.874Z,17.10
2018-05-27T22:35:02.201Z,17.10
2018-05-27T22:37:29.734Z,17.20
2018-05-27T22:39:57.241Z,17.10
2018-05-27T22:42:24.816Z,17.10
2018-05-27T22:44:53.308Z,17.10
2018-05-27T22:47:20.958Z,17.10
2018-05-27T22:49:48.598Z,17.10
2018-05-27T22:52:16.157Z,17.10
2018-05-27T22:54:43.664Z,17.10
2018-05-27T22:57:11.380Z,17.10
2018-05-27T22:59:39.038Z,17.00
2018-05-27T23:02:06.574Z,17.00
2018-05-27T23:04:34.078Z,16.90
2018-05-27T23:07:01.614Z,16.90
2018-05-27T23:09:29.127Z,16.80
2018-05-27T23:11:57.133Z,16.80
2018-05-27T23:14:25.799Z,16.80
2018-05-27T23:16:53.305Z,16.80
2018-05-27T23:19:20.845Z,16.70
2018-05-27T23:21:48.348Z,16.50
2018-05-27T23:24:16.231Z,16.40
2018-05-27T23:26:43.742Z,16.30
2018-05-27T23:29:11.282Z,16.10
2018-05-27T23:31:38.785Z,16.10
2018-05-27T23:34:06.709Z,16.10
2018-05-27T23:36:34.209Z,16.20
2018-05-27T23:39:01.742Z,16.20
2018-05-27T23:41:29.253Z,16.20
2018-05-27T23:43:56.794Z,16.20
2018-05-27T23:46:24.305Z,16.20
2018-05-27T23:48:52.274Z,16.10
2018-05-27T23:51:19.781Z,16.00
2018-05-27T23:53:47.308Z,16.00
2018-05-27T23:56:14.820Z,15.90
2018-05-27T23:58:42.358Z,16.00
